Time;durP1;ratioP1;P1;durP2;ratioP2;P2;SDS_P1;SDS_P2;PMS_P1;PMS_P2;Temp;Humidity;BMP_temperature;BMP_pressure;BME280_temperature;BME280_humidity;BME280_pressure;Samples;Min_cycle;Max_cycle;Signal;HPM_P1;HPM_P2
2022/04/27 00:57:46;;;;;;;;;;;;;;;;;;;;;
2022/04/27 01:08:57;;;;;;;;;;;;;;;;;;;;;
2022/04/27 01:18:56;;;;;;;;;;;;;;;;;;;;;
2022/04/27 04:16:55;;;;;;;5.10;2.50;;;;;;;7.18;100.00;94425.91;5044592;28;20052;-93
2022/04/27 04:19:28;;;;;;;6.88;2.75;;;;;;;7.08;100.00;94420.59;5019752;28;20046;-94
2022/04/27 04:22:16;;;;;;;;;;;;;;;;;;;;;
2022/04/27 04:30:58;;;;;;;7.15;2.88;;;;;;;7.21;100.00;94440.25;5036866;28;20056;-93
2022/04/27 04:33:37;;;;;;;;;;;;;;;;;;;;;
2022/04/27 04:36:13;;;;;;;4.32;2.30;;;;;;;7.41;100.00;94444.91;5021431;28;20029;-93
2022/04/27 04:38:48;;;;;;;3.80;2.33;;;;;;;7.35;100.00;94451.13;5004778;28;20040;-93
2022/04/27 04:49:10;;;;;;;;;;;;;;;;;;;;;
2022/04/27 04:55:01;;;;;;;7.53;2.92;;;;;;;7.80;100.00;94461.47;5006929;28;20048;-92
2022/04/27 05:01:01;;;;;;;;;;;;;;;;;;;;;
2022/04/27 05:03:40;;;;;;;;;;;;;;;;;;;;;
2022/04/27 05:06:16;;;;;;;;;;;;;;;;;;;;;
2022/04/27 05:08:51;;;;;;;5.72;2.72;;;;;;;7.81;100.00;94466.41;5025361;28;20029;-92
2022/04/27 05:11:19;;;;;;;2.92;2.03;;;;;;;8.13;100.00;94470.09;5008405;28;20033;-92
2022/04/27 05:13:59;;;;;;;;;;;;;;;;;;;;;
2022/04/27 05:16:36;;;;;;;4.57;2.45;;;;;;;8.87;100.00;94471.13;5024115;28;20031;-92
2022/04/27 05:19:02;;;;;;;5.20;2.33;;;;;;;8.74;100.00;94474.19;5007373;28;20045;-92
2022/04/27 05:21:54;;;;;;;6.60;2.20;;;;;;;9.17;100.00;94471.53;5006029;28;20045;-92
2022/04/27 05:24:29;;;;;;;5.75;1.92;;;;;;;9.18;100.00;94479.13;5006421;28;20091;-92
2022/04/27 05:27:27;;;;;;;;;;;;;;;;;;;;;
2022/04/27 05:32:43;;;;;;;5.97;2.40;;;;;;;10.00;100.00;94480.38;5038766;28;20137;-93
2022/04/27 05:35:21;;;;;;;;;;;;;;;;;;;;;
2022/04/27 05:37:50;;;;;;;4.40;2.42;;;;;;;9.48;100.00;94484.72;5023310;28;20024;-93
2022/04/27 05:40:28;;;;;;;;;;;;;;;;;;;;;
2022/04/27 05:43:07;;;;;;;;;;;;;;;;;;;;;
2022/04/27 05:45:52;;;;;;;;;;;;;;;;;;;;;
2022/04/27 05:48:27;;;;;;;6.57;2.00;;;;;;;9.19;100.00;94500.81;5038130;28;20316;-93
2022/04/27 05:51:11;;;;;;;;;;;;;;;;;;;;;
2022/04/27 05:53:47;;;;;;;;;;;;;;;;;;;;;
2022/04/27 05:56:25;;;;;;;;;;;;;;;;;;;;;
2022/04/27 05:59:01;;;;;;;;;;;;;;;;;;;;;
2022/04/27 06:01:38;;;;;;;;;;;;;;;;;;;;;
2022/04/27 06:04:09;;;;;;;3.30;2.20;;;;;;;10.62;100.00;94507.69;5021732;28;20447;-93
2022/04/27 06:06:51;;;;;;;4.65;1.88;;;;;;;11.03;100.00;94515.44;5005748;28;20037;-93
2022/04/27 06:09:22;;;;;;;3.35;1.98;;;;;;;11.29;100.00;94513.56;5021680;28;20037;-93
2022/04/27 06:11:52;;;;;;;8.55;2.35;;;;;;;11.38;100.00;94515.59;5021695;28;20036;-93
2022/04/27 06:14:27;;;;;;;;;;;;;;;;;;;;;
2022/04/27 06:16:55;;;;;;;5.43;2.30;;;;;;;11.62;100.00;94515.81;5022467;28;20022;-92
2022/04/27 06:19:21;;;;;;;4.13;1.83;;;;;;;11.92;100.00;94516.69;5021317;28;20065;-92
2022/04/27 06:21:53;;;;;;;4.10;2.53;;;;;;;11.82;100.00;94522.00;5038391;28;20079;-92
2022/04/27 06:24:31;;;;;;;3.77;2.00;;;;;;;11.87;100.00;94519.31;5022068;28;20037;-92
2022/04/27 06:27:04;;;;;;;3.95;2.10;;;;;;;12.26;100.00;94525.69;5038344;28;20033;-93
2022/04/27 06:30:00;;;;;;;;;;;;;;;;;;;;;
2022/04/27 06:32:23;;;;;;;5.35;2.20;;;;;;;13.00;100.00;94527.44;5021883;28;20036;-93
2022/04/27 06:35:13;;;;;;;4.13;2.40;;;;;;;13.53;100.00;94534.53;5020962;28;20033;-92
2022/04/27 06:37:52;;;;;;;6.15;2.55;;;;;;;12.61;100.00;94533.56;5038119;28;20264;-93
2022/04/27 06:40:28;;;;;;;;;;;;;;;;;;;;;
2022/04/27 06:43:05;;;;;;;;;;;;;;;;;;;;;
2022/04/27 06:45:40;;;;;;;6.88;2.22;;;;;;;13.02;100.00;94530.56;5037985;28;20025;-93
2022/04/27 06:48:20;;;;;;;6.78;2.58;;;;;;;12.56;100.00;94523.91;5021847;28;20057;-92
2022/04/27 06:50:46;;;;;;;5.35;2.38;;;;;;;12.84;100.00;94527.59;5021537;28;20044;-92
2022/04/27 06:53:21;;;;;;;;;;;;;;;;;;;;;
2022/04/27 06:55:58;;;;;;;;;;;;;;;;;;;;;
2022/04/27 06:58:24;;;;;;;6.10;2.38;;;;;;;12.48;100.00;94532.38;5036939;28;20029;-92
2022/04/27 07:00:59;;;;;;;;;;;;;;;;;;;;;
2022/04/27 07:03:35;;;;;;;;;;;;;;;;;;;;;
2022/04/27 07:06:14;;;;;;;;;;;;;;;;;;;;;
2022/04/27 07:08:50;;;;;;;;;;;;;;;;;;;;;
2022/04/27 07:11:16;;;;;;;6.13;2.75;;;;;;;12.77;100.00;94537.66;5021691;28;20021;-92
2022/04/27 07:13:42;;;;;;;5.05;2.35;;;;;;;12.99;100.00;94550.34;5020040;28;20534;-93
2022/04/27 07:16:10;;;;;;;6.75;3.25;;;;;;;13.05;100.00;94539.78;5003655;28;20037;-92
2022/04/27 07:18:43;;;;;;;6.18;3.42;;;;;;;13.13;100.00;94547.06;5020047;28;20037;-93
2022/04/27 07:21:15;;;;;;;8.65;3.33;;;;;;;13.24;100.00;94542.47;5037391;28;20033;-92
2022/04/27 07:23:53;;;;;;;;;;;;;;;;;;;;;
2022/04/27 07:26:28;;;;;;;4.57;3.10;;;;;;;13.61;100.00;94545.53;5021214;28;20029;-92
2022/04/27 07:28:59;;;;;;;9.52;4.88;;;;;;;13.88;100.00;94552.03;5021077;28;20033;-92
2022/04/27 07:31:35;;;;;;;7.47;4.65;;;;;;;14.34;100.00;94550.59;5003926;28;20355;-92
2022/04/27 07:34:00;;;;;;;13.85;6.10;;;;;;;14.23;100.00;94556.03;5037244;28;20355;-93
2022/04/27 07:36:35;;;;;;;14.10;7.50;;;;;;;14.31;100.00;94556.47;5019690;28;20040;-94
2022/04/27 07:39:11;;;;;;;;;;;;;;;;;;;;;
2022/04/27 07:41:47;;;;;;;;;;;;;;;;;;;;;
2022/04/27 07:44:15;;;;;;;12.70;5.88;;;;;;;15.01;100.00;94562.78;5021030;28;20338;-92
2022/04/27 07:46:43;;;;;;;11.60;6.00;;;;;;;14.32;100.00;94568.56;5019706;28;20077;-92
2022/04/27 07:49:20;;;;;;;;;;;;;;;;;;;;;
2022/04/27 07:51:53;;;;;;;14.23;6.15;;;;;;;15.03;100.00;94579.09;5021082;28;20024;-93
2022/04/27 07:54:36;;;;;;;12.85;6.78;;;;;;;14.81;100.00;94580.53;5020223;28;20042;-93
2022/04/27 07:57:07;;;;;;;12.10;7.15;;;;;;;15.03;100.00;94570.41;5019595;28;20035;-93
2022/04/27 07:59:45;;;;;;;11.63;6.40;;;;;;;15.16;100.00;94584.69;5036997;28;20037;-93
2022/04/27 08:05:35;;;;;;;9.32;5.22;;;;;;;15.35;100.00;94588.06;5037074;28;20121;-91
2022/04/27 08:08:10;;;;;;;;;;;;;;;;;;;;;
2022/04/27 08:10:46;;;;;;;9.93;5.10;;;;;;;15.68;100.00;94589.81;5021292;28;20052;-93
2022/04/27 08:13:21;;;;;;;;;;;;;;;;;;;;;
2022/04/27 08:15:56;;;;;;;10.95;5.03;;;;;;;16.31;100.00;94592.03;5020988;28;20035;-92
2022/04/27 08:18:29;;;;;;;10.45;5.43;;;;;;;16.68;100.00;94588.28;5004555;28;20041;-93
2022/04/27 08:23:40;;;;;;;12.10;5.00;;;;;;;17.41;100.00;94591.06;5021786;28;20469;-92
2022/04/27 08:26:16;;;;;;;;;;;;;;;;;;;;;
2022/04/27 08:28:45;;;;;;;11.52;7.28;;;;;;;16.96;97.72;94601.38;5023353;28;20446;-93
2022/04/27 08:31:21;;;;;;;17.50;7.72;;;;;;;16.43;100.00;94599.47;5023351;28;20049;-93
2022/04/27 08:33:57;;;;;;;;;;;;;;;;;;;;;
2022/04/27 08:36:23;;;;;;;16.13;6.70;;;;;;;16.34;100.00;94599.38;5024370;28;20032;-92
2022/04/27 08:38:48;;;;;;;10.55;6.25;;;;;;;16.09;100.00;94612.81;5023115;28;20124;-92
2022/04/27 08:41:24;;;;;;;;;;;;;;;;;;;;;
2022/04/27 08:43:57;;;;;;;13.63;6.65;;;;;;;15.92;100.00;94613.44;5024232;28;20035;-91
2022/04/27 08:46:27;;;;;;;15.80;6.68;;;;;;;16.49;100.00;94614.13;5007688;28;20048;-92
2022/04/27 08:48:52;;;;;;;16.00;7.40;;;;;;;15.85;100.00;94613.03;5022757;28;20045;-92
2022/04/27 08:51:31;;;;;;;;;;;;;;;;;;;;;
2022/04/27 08:53:59;;;;;;;13.88;8.43;;;;;;;16.19;100.00;94616.34;5024318;28;20033;-92
2022/04/27 08:56:30;;;;;;;14.55;7.80;;;;;;;15.92;100.00;94610.00;5006525;28;20347;-93
2022/04/27 08:59:00;;;;;;;13.98;6.95;;;;;;;16.18;100.00;94618.19;5006690;28;20124;-93
2022/04/27 09:01:38;;;;;;;17.17;8.90;;;;;;;15.36;100.00;94621.31;5006856;28;20506;-93
2022/04/27 09:04:19;;;;;;;19.60;9.10;;;;;;;16.08;100.00;94621.06;5006841;28;20079;-93
2022/04/27 09:06:47;;;;;;;20.67;8.23;;;;;;;16.54;100.00;94625.38;5006639;28;20459;-93
2022/04/27 09:09:33;;;;;;;18.70;8.52;;;;;;;16.34;100.00;94637.19;5006287;28;20044;-93
2022/04/27 09:12:06;;;;;;;15.88;8.30;;;;;;;16.32;100.00;94627.97;5006687;28;20034;-93
2022/04/27 09:14:46;;;;;;;;;;;;;;;;;;;;;
2022/04/27 09:23:45;;;;;;;19.13;9.15;;;;;;;16.30;100.00;94630.13;5024679;28;20095;-92
2022/04/27 09:26:33;;;;;;;14.60;8.20;;;;;;;16.65;100.00;94619.88;5007295;28;20037;-92
2022/04/27 09:29:03;;;;;;;21.33;9.45;;;;;;;17.08;100.00;94626.56;5023095;28;20363;-93
2022/04/27 09:34:53;;;;;;;16.98;10.27;;;;;;;17.15;100.00;94623.50;5039400;28;20045;-92
2022/04/27 09:37:37;;;;;;;;;;;;;;;;;;;;;
2022/04/27 09:40:11;;;;;;;16.83;9.15;;;;;;;16.68;100.00;94633.25;5038927;28;20032;-93
2022/04/27 09:42:44;;;;;;;17.13;9.07;;;;;;;16.59;100.00;94636.91;5006026;28;20045;-92
2022/04/27 09:45:37;;;;;;;;;;;;;;;;;;;;;
2022/04/27 09:48:14;;;;;;;;;;;;;;;;;;;;;
2022/04/27 09:50:58;;;;;;;;;;;;;;;;;;;;;
2022/04/27 09:53:26;;;;;;;17.25;10.25;;;;;;;16.00;100.00;94642.88;5023041;28;20044;-92
2022/04/27 09:55:59;;;;;;;21.67;11.30;;;;;;;15.63;100.00;94640.88;5005715;28;20037;-92
2022/04/27 09:58:38;;;;;;;;;;;;;;;;;;;;;
2022/04/27 10:01:04;;;;;;;20.83;10.98;;;;;;;15.69;100.00;94631.81;5022823;28;20259;-93
2022/04/27 10:03:44;;;;;;;;;;;;;;;;;;;;;
2022/04/27 10:06:17;;;;;;;21.08;11.35;;;;;;;15.87;100.00;94634.63;5022768;28;20033;-93
2022/04/27 10:08:48;;;;;;;22.63;11.93;;;;;;;16.02;100.00;94630.16;5006378;28;20037;-93
2022/04/27 10:11:20;;;;;;;20.23;10.70;;;;;;;16.41;100.00;94620.91;5005331;28;20037;-93
2022/04/27 10:13:45;;;;;;;17.85;8.98;;;;;;;16.91;100.00;94621.91;5005494;28;20033;-91
2022/04/27 10:16:12;;;;;;;23.23;13.48;;;;;;;16.35;100.00;94624.72;5004774;28;20119;-92
2022/04/27 10:18:50;;;;;;;;;;;;;;;;;;;;;
2022/04/27 10:21:43;;;;;;;21.23;11.60;;;;;;;16.53;100.00;94634.38;5022513;28;20033;-92
2022/04/27 10:24:10;;;;;;;19.20;9.82;;;;;;;16.65;100.00;94619.88;5005608;28;20030;-94
2022/04/27 10:26:39;;;;;;;26.23;12.65;;;;;;;16.67;100.00;94621.13;5004895;28;20033;-93
2022/04/27 10:29:18;;;;;;;;;;;;;;;;;;;;;
2022/04/27 10:32:09;;;;;;;;;;;;;;;;;;;;;
2022/04/27 10:34:45;;;;;;;;;;;;;;;;;;;;;
2022/04/27 10:37:16;;;;;;;21.98;13.13;;;;;;;16.37;100.00;94633.94;5022129;28;20029;-92
2022/04/27 10:39:53;;;;;;;;;;;;;;;;;;;;;
2022/04/27 10:42:19;;;;;;;29.90;13.40;;;;;;;16.82;100.00;94629.78;5037276;28;20029;-93
2022/04/27 10:44:53;;;;;;;23.40;12.73;;;;;;;16.99;100.00;94625.69;5037737;28;20152;-93
2022/04/27 10:47:22;;;;;;;22.45;13.00;;;;;;;16.76;100.00;94626.47;5037319;28;20049;-93
2022/04/27 10:49:52;;;;;;;29.15;12.88;;;;;;;16.88;100.00;94631.25;5020599;28;20455;-92
2022/04/27 10:52:32;;;;;;;19.23;12.70;;;;;;;17.21;100.00;94632.84;5003846;28;20043;-92
2022/04/27 10:54:57;;;;;;;22.65;13.52;;;;;;;17.36;100.00;94632.50;5005383;28;20033;-92
2022/04/27 10:57:39;;;;;;;;;;;;;;;;;;;;;
2022/04/27 11:00:08;;;;;;;22.73;12.38;;;;;;;16.44;100.00;94635.41;5038164;28;20342;-92
2022/04/27 11:02:44;;;;;;;22.55;13.95;;;;;;;16.41;100.00;94631.47;5004995;28;20041;-92
2022/04/27 11:05:23;;;;;;;;;;;;;;;;;;;;;
2022/04/27 11:08:17;;;;;;;;;;;;;;;;;;;;;
2022/04/27 11:11:01;;;;;;;;;;;;;;;;;;;;;
2022/04/27 11:14:05;;;;;;;;;;;;;;;;;;;;;
2022/04/27 11:16:49;;;;;;;;;;;;;;;16.92;100.00;94644.63;5031637;28;20342;-93
2022/04/27 11:19:25;;;;;;;;;;;;;;;;;;;;;
2022/04/27 11:22:01;;;;;;;23.38;12.25;;;;;;;17.26;100.00;94632.75;5021281;28;20033;-93
2022/04/27 11:24:44;;;;;;;;;;;;;;;;;;;;;
2022/04/27 11:27:28;;;;;;;23.73;12.90;;;;;;;17.50;100.00;94636.91;5021542;28;20043;-91
2022/04/27 11:30:07;;;;;;;;;;;;;;;;;;;;;
2022/04/27 11:32:45;;;;;;;;;;;;;;;;;;;;;
2022/04/27 11:35:11;;;;;;;33.28;17.98;;;;;;;16.82;100.00;94645.66;5021495;28;20026;-92
2022/04/27 11:37:39;;;;;;;21.67;12.98;;;;;;;16.40;100.00;94640.50;5037363;28;20125;-92
2022/04/27 11:40:32;;;;;;;27.90;14.75;;;;;;;16.74;100.00;94646.38;5037134;28;20043;-92
2022/04/27 11:43:00;;;;;;;31.17;16.40;;;;;;;16.83;100.00;94636.63;5037218;28;20120;-92
2022/04/27 11:45:33;;;;;;;27.83;15.50;;;;;;;17.08;100.00;94643.25;5037134;28;20439;-92
2022/04/27 11:48:16;;;;;;;;;;;;;;;;;;;;;
2022/04/27 11:50:58;;;;;;;23.63;14.98;;;;;;;17.37;100.00;94644.66;5021230;28;20036;-92
2022/04/27 11:53:33;;;;;;;;;;;;;;;;;;;;;
2022/04/27 11:56:02;;;;;;;24.00;14.10;;;;;;;17.01;100.00;94644.75;5021310;28;20044;-92
2022/04/27 11:58:40;;;;;;;;;;;;;;;;;;;;;
2022/04/27 12:01:15;;;;;;;19.90;11.40;;;;;;;17.64;89.85;94642.13;5020937;28;20025;-93
2022/04/27 12:03:43;;;;;;;28.08;14.52;;;;;;;17.16;99.51;94643.59;5009078;28;20124;-93
2022/04/27 12:06:19;;;;;;;;;;;;;;;;;;;;;
2022/04/27 12:08:45;;;;;;;25.52;16.38;;;;;;;17.53;100.00;94642.38;5040821;28;20354;-92
2022/04/27 12:11:29;;;;;;;;;;;;;;;;;;;;;
2022/04/27 12:14:05;;;;;;;;;;;;;;;;;;;;;
2022/04/27 12:16:41;;;;;;;;;;;;;;;;;;;;;
2022/04/27 12:19:08;;;;;;;31.20;17.10;;;;;;;18.11;100.00;94640.91;5025155;28;20036;-92
2022/04/27 12:21:47;;;;;;;;;;;;;;;;;;;;;
2022/04/27 12:24:20;;;;;;;22.65;15.15;;;;;;;17.27;79.20;94647.56;5040480;28;20527;-93
2022/04/27 12:27:05;;;;;;;27.77;15.33;;;;;;;17.57;100.00;94645.22;5007570;28;20521;-93
2022/04/27 12:29:33;;;;;;;27.33;18.17;;;;;;;17.46;100.00;94642.06;5023723;28;20343;-92
2022/04/27 12:32:00;;;;;;;27.95;18.13;;;;;;;17.26;92.58;94638.03;5024244;28;20061;-91
2022/04/27 12:38:02;;;;;;;;;;;;;;;;;;;;;
2022/04/27 12:44:00;;;;;;;;;;;;;;;;;;;;;
2022/04/27 12:46:38;;;;;;;;;;;;;;;;;;;;;
2022/04/27 12:49:23;;;;;;;27.77;18.02;;;;;;;17.43;87.78;94647.16;5024800;28;20334;-92
2022/04/27 12:52:09;;;;;;;29.15;17.10;;;;;;;17.64;98.62;94642.91;5025300;28;20108;-91
2022/04/27 12:54:37;;;;;;;24.38;16.55;;;;;;;16.76;97.45;94642.34;5024184;28;20040;-91
2022/04/27 12:57:03;;;;;;;28.48;16.80;;;;;;;16.93;97.26;94640.94;5022626;28;20029;-92
2022/04/27 12:59:33;;;;;;;27.50;17.00;;;;;;;17.04;96.83;94630.91;5022865;28;20040;-93
2022/04/27 13:02:14;;;;;;;;;;;;;;;;;;;;;
2022/04/27 13:04:47;;;;;;;27.00;16.30;;;;;;;18.11;85.55;94636.41;5024762;28;20431;-92
2022/04/27 13:07:18;;;;;;;25.67;17.90;;;;;;;16.93;89.92;94636.41;5022772;28;20064;-93
2022/04/27 13:12:38;;;;;;;27.63;18.23;;;;;;;17.51;94.75;94633.97;5039011;28;20029;-92
2022/04/27 13:15:49;;;;;;;27.88;15.82;;;;;;;17.31;89.18;94627.31;5021909;28;20033;-93
2022/04/27 13:18:23;;;;;;;24.98;16.33;;;;;;;17.66;80.49;94627.50;5022512;28;20121;-93
2022/04/27 13:20:50;;;;;;;26.27;16.73;;;;;;;17.43;81.79;94633.94;5022362;28;20037;-93
2022/04/27 13:23:26;;;;;;;;;;;;;;;;;;;;;
2022/04/27 13:25:57;;;;;;;24.50;14.80;;;;;;;17.76;89.64;94623.78;5023351;28;20017;-93
2022/04/27 13:28:26;;;;;;;24.08;15.63;;;;;;;17.27;79.59;94631.66;5023305;28;20033;-92
2022/04/27 13:30:52;;;;;;;24.05;14.50;;;;;;;17.20;79.39;94624.16;5022507;28;20037;-92
2022/04/27 13:33:29;;;;;;;22.63;14.05;;;;;;;17.36;75.67;94631.72;5005716;28;20056;-93
2022/04/27 13:36:04;;;;;;;;;;;;;;;;;;;;;
2022/04/27 13:38:33;;;;;;;26.05;15.77;;;;;;;19.15;73.14;94628.03;5023496;28;20025;-92
2022/04/27 13:41:01;;;;;;;21.58;12.70;;;;;;;19.01;70.25;94617.56;5038272;28;20036;-92
2022/04/27 13:43:31;;;;;;;23.30;12.98;;;;;;;18.61;71.05;94619.31;5021798;28;20080;-92
2022/04/27 13:46:00;;;;;;;20.42;13.95;;;;;;;18.72;75.08;94618.97;5021887;28;20037;-92
2022/04/27 13:48:44;;;;;;;24.02;15.30;;;;;;;18.21;70.52;94622.81;5006310;28;20034;-92
2022/04/27 13:51:19;;;;;;;;;;;;;;;;;;;;;
2022/04/27 13:53:45;;;;;;;23.10;12.85;;;;;;;18.98;70.53;94626.94;5023158;28;20013;-91
2022/04/27 13:56:11;;;;;;;23.90;13.10;;;;;;;18.03;69.72;94635.28;5005082;28;20441;-91
2022/04/27 13:58:39;;;;;;;19.35;12.57;;;;;;;17.81;68.18;94615.69;5005263;28;20048;-93
2022/04/27 14:01:04;;;;;;;18.80;11.52;;;;;;;18.83;67.01;94614.16;5021644;28;20029;-93
2022/04/27 14:03:32;;;;;;;19.52;10.95;;;;;;;19.53;71.19;94616.69;5021028;28;20124;-91
2022/04/27 14:05:58;;;;;;;16.20;9.68;;;;;;;20.13;67.56;94615.97;5005561;28;20443;-91
2022/04/27 14:08:28;;;;;;;20.52;11.43;;;;;;;19.00;66.20;94622.13;5038687;28;20034;-92
2022/04/27 14:11:01;;;;;;;18.08;10.98;;;;;;;19.34;60.74;94617.81;5005349;28;20043;-92
2022/04/27 14:13:37;;;;;;;;;;;;;;;;;;;;;
2022/04/27 14:18:52;;;;;;;11.35;7.57;;;;;;;22.19;52.49;94624.88;5023640;28;20191;-92
2022/04/27 14:21:17;;;;;;;11.85;6.45;;;;;;;23.45;47.71;94629.50;5021476;28;20067;-91
2022/04/27 14:23:45;;;;;;;11.02;7.13;;;;;;;23.33;48.50;94625.00;5004649;28;20104;-92
2022/04/27 14:26:12;;;;;;;17.13;7.22;;;;;;;22.61;48.66;94628.38;5036271;28;20045;-92
2022/04/27 14:28:48;;;;;;;;;;;;;;;;;;;;;
2022/04/27 14:31:25;;;;;;;;;;;;;;;;;;;;;
2022/04/27 14:33:53;;;;;;;8.73;6.30;;;;;;;20.94;51.61;94629.19;5022396;28;20056;-93
2022/04/27 14:36:29;;;;;;;;;;;;;;;;;;;;;
2022/04/27 14:39:13;;;;;;;;;;;;;;;;;;;;;
2022/04/27 14:41:49;;;;;;;15.07;6.00;;;;;;;23.07;49.28;94628.09;5022109;28;20028;-93
2022/04/27 14:44:17;;;;;;;9.55;5.60;;;;;;;23.26;52.55;94625.59;5005179;28;20048;-94
2022/04/27 14:46:45;;;;;;;9.65;5.35;;;;;;;20.73;48.42;94624.63;5020584;28;20046;-92
2022/04/27 14:49:11;;;;;;;10.88;6.07;;;;;;;20.69;50.61;94630.94;5004385;28;20043;-92
2022/04/27 14:51:41;;;;;;;9.43;5.05;;;;;;;21.99;47.37;94624.63;5004075;28;20038;-93
2022/04/27 14:54:16;;;;;;;12.90;5.50;;;;;;;21.66;48.11;94612.19;5004397;28;20441;-93
2022/04/27 14:56:59;;;;;;;10.38;4.55;;;;;;;22.84;48.21;94620.63;4927284;27;4187989;-94
2022/04/27 14:59:24;;;;;;;7.60;5.47;;;;;;;21.94;47.56;94619.53;5058551;28;20033;-95
2022/04/27 15:02:01;;;;;;;10.02;4.47;;;;;;;22.97;47.07;94608.78;5057365;28;20090;-95
2022/04/27 15:04:38;;;;;;;;;;;;;;;;;;;;;
2022/04/27 15:07:13;;;;;;;9.73;5.70;;;;;;;21.14;51.66;94616.16;5073773;28;20017;-94
2022/04/27 15:09:38;;;;;;;9.20;4.32;;;;;;;21.88;48.87;94610.97;5058075;28;20032;-95
2022/04/27 15:12:17;;;;;;;;;;;;;;;;;;;;;
2022/04/27 15:14:54;;;;;;;8.15;4.10;;;;;;;24.32;49.53;94620.84;5073117;28;20025;-93
2022/04/27 15:17:20;;;;;;;9.57;4.80;;;;;;;22.73;45.25;94607.75;5058265;28;20406;-94
2022/04/27 15:22:41;;;;;;;9.13;4.72;;;;;;;23.42;45.65;94616.81;5056553;28;20115;-95
2022/04/27 15:22:55;;;;;;;;;;;;;;;;;;;;;
2022/04/27 15:25:26;;;;;;;7.78;4.38;;;;;;;22.40;46.91;94624.72;5073199;28;20027;-95
2022/04/27 15:27:54;;;;;;;6.55;4.15;;;;;;;22.30;47.61;94619.84;5056722;28;20025;-95
2022/04/27 15:30:35;;;;;;;7.43;4.40;;;;;;;24.12;43.40;94615.44;5057167;28;20037;-95
2022/04/27 15:33:01;;;;;;;7.82;4.00;;;;;;;23.14;48.27;94618.38;5057698;28;20418;-95
2022/04/27 15:35:29;;;;;;;6.45;4.00;;;;;;;23.55;44.24;94612.94;5056260;28;20120;-94
2022/04/27 15:38:08;;;;;;;;;;;;;;;;;;;;;
2022/04/27 15:40:39;;;;;;;4.13;2.95;;;;;;;24.79;43.83;94621.84;5072753;28;20027;-94
2022/04/27 15:43:51;;;;;;;5.20;3.25;;;;;;;24.87;40.80;94635.38;5056586;28;20020;-96
2022/04/27 15:46:26;;;;;;;;;;;;;;;;;;;;;
2022/04/27 15:48:54;;;;;;;6.45;3.83;;;;;;;22.97;44.98;94622.13;5072638;28;20023;-95
2022/04/27 15:51:35;;;;;;;;;;;;;;;;;;;;;
2022/04/27 15:54:04;;;;;;;5.05;3.25;;;;;;;24.48;46.40;94628.03;5072834;28;20017;-95
2022/04/27 15:56:43;;;;;;;;;;;;;;;;;;;;;
2022/04/27 15:59:18;;;;;;;;;;;;;;;;;;;;;
2022/04/27 16:01:54;;;;;;;;;;;;;;;;;;;;;
2022/04/27 16:04:30;;;;;;;;;;;;;;;;;;;;;
2022/04/27 16:07:05;;;;;;;8.88;3.90;;;;;;;23.42;44.00;94625.59;5066120;28;20029;-96
2022/04/27 16:09:34;;;;;;;9.98;3.60;;;;;;;20.80;50.15;94624.13;5043879;28;20036;-95
2022/04/27 16:12:10;;;;;;;11.80;4.35;;;;;;;20.51;50.86;94622.28;5042789;28;20090;-95
2022/04/27 16:14:49;;;;;;;;;;;;;;;;;;;;;
2022/04/27 16:17:24;;;;;;;19.58;5.18;;;;;;;21.40;49.70;94623.88;5058982;28;20350;-94
2022/04/27 16:19:59;;;;;;;5.90;3.75;;;;;;;24.06;47.14;94630.19;5043616;28;20052;-94
2022/04/27 16:25:14;;;;;;;8.95;3.33;;;;;;;24.88;45.96;94635.03;5058916;28;20345;-96
2022/04/27 16:27:40;;;;;;;8.23;3.83;;;;;;;22.01;46.78;94641.06;5042035;28;20123;-95
2022/04/27 16:30:08;;;;;;;9.60;4.00;;;;;;;22.73;46.87;94639.00;5042320;28;20029;-95
2022/04/27 16:35:58;;;;;;;7.15;3.63;;;;;;;20.42;52.02;94647.09;5059479;28;20035;-94
2022/04/27 16:39:16;;;;;;;7.20;3.20;;;;;;;23.21;50.42;94641.84;5042158;28;20033;-95
2022/04/27 16:41:51;;;;;;;;;;;;;;;;;;;;;
2022/04/27 16:44:27;;;;;;;;;;;;;;;;;;;;;
2022/04/27 16:46:58;;;;;;;6.50;3.80;;;;;;;22.42;45.97;94643.84;5058231;28;20027;-95
2022/04/27 16:49:26;;;;;;;6.50;3.70;;;;;;;23.56;44.49;94643.13;5042087;28;20039;-95
2022/04/27 16:51:57;;;;;;;11.95;3.17;;;;;;;20.43;50.64;94656.63;5058075;28;20043;-94
2022/04/27 16:54:25;;;;;;;7.15;3.30;;;;;;;21.58;48.43;94647.69;5060508;28;20342;-95
2022/04/27 16:56:53;;;;;;;6.35;3.13;;;;;;;23.61;45.44;94658.16;5041990;28;20033;-95
2022/04/27 16:59:28;;;;;;;;;;;;;;;;;;;;;
2022/04/27 17:02:04;;;;;;;;;;;;;;;;;;;;;
2022/04/27 17:04:41;;;;;;;6.50;3.50;;;;;;;20.00;51.30;94655.00;5058091;28;20025;-94
2022/04/27 17:07:09;;;;;;;5.25;3.70;;;;;;;20.14;49.84;94657.41;5057846;28;20438;-95
2022/04/27 17:09:34;;;;;;;11.63;3.65;;;;;;;19.46;51.13;94666.88;5058830;28;20029;-95
2022/04/27 17:12:02;;;;;;;7.35;4.15;;;;;;;17.59;56.81;94661.59;5057613;28;20132;-94
2022/04/27 17:14:30;;;;;;;8.85;3.95;;;;;;;17.83;57.08;94664.94;5057656;28;20503;-94
2022/04/27 17:17:02;;;;;;;6.82;3.30;;;;;;;17.66;61.56;94666.44;5057864;28;20029;-94
2022/04/27 17:19:28;;;;;;;4.10;2.70;;;;;;;17.43;61.78;94666.50;5041427;28;20024;-95
2022/04/27 17:21:53;;;;;;;6.82;3.47;;;;;;;16.90;69.90;94678.56;5058230;28;20306;-95
2022/04/27 17:24:26;;;;;;;8.50;3.53;;;;;;;16.84;66.88;94680.53;5041108;28;20028;-94
2022/04/27 17:29:38;;;;;;;5.63;3.38;;;;;;;16.27;77.62;94683.59;5058499;28;20075;-95
2022/04/27 17:32:05;;;;;;;9.65;4.30;;;;;;;15.77;77.59;94685.00;5057523;28;20029;-94
2022/04/27 17:34:30;;;;;;;7.25;4.18;;;;;;;15.05;86.27;94685.13;5058535;28;20081;-94
2022/04/27 17:37:03;;;;;;;5.68;3.45;;;;;;;15.32;92.76;94688.19;5057325;28;20433;-94
2022/04/27 17:39:30;;;;;;;9.27;4.00;;;;;;;15.39;86.57;94691.22;5057547;28;20025;-94
2022/04/27 17:42:34;;;;;;;5.40;3.72;;;;;;;15.54;93.52;94701.50;5057155;28;20313;-94
2022/04/27 17:44:47;;;;;;;10.38;4.00;;;;;;;15.30;92.28;94701.66;5056999;28;20110;-94
2022/04/27 17:47:14;;;;;;;7.35;3.45;;;;;;;14.99;94.97;94694.22;5057305;28;20377;-94
2022/04/27 17:49:40;;;;;;;5.47;3.20;;;;;;;15.07;94.33;94698.84;5057316;28;20029;-94
2022/04/27 17:52:05;;;;;;;8.52;3.53;;;;;;;14.62;100.00;94701.81;5057035;28;20029;-94
2022/04/27 17:54:33;;;;;;;7.05;3.67;;;;;;;14.50;100.00;94704.09;5057916;28;20029;-94
2022/04/27 17:56:59;;;;;;;9.85;3.80;;;;;;;13.89;100.00;94709.78;5057041;28;20074;-94
2022/04/27 17:59:27;;;;;;;5.95;3.80;;;;;;;13.71;100.00;94704.16;5056973;28;20107;-94
2022/04/27 18:01:52;;;;;;;9.05;3.35;;;;;;;13.77;100.00;94707.53;5056596;28;20035;-93
2022/04/27 18:04:20;;;;;;;4.22;2.88;;;;;;;13.96;100.00;94704.97;5057159;28;20346;-94
2022/04/27 18:06:55;;;;;;;7.45;3.60;;;;;;;13.80;100.00;94708.81;5057794;28;20021;-94
2022/04/27 18:09:20;;;;;;;5.10;3.40;;;;;;;13.32;100.00;94709.47;5056706;28;20056;-93
2022/04/27 18:11:46;;;;;;;8.93;3.80;;;;;;;13.38;100.00;94711.00;5056899;28;20059;-93
2022/04/27 18:14:14;;;;;;;7.55;3.53;;;;;;;13.23;100.00;94711.94;5056686;28;20059;-93
2022/04/27 18:16:39;;;;;;;6.90;3.40;;;;;;;12.96;100.00;94708.66;5056535;28;20029;-93
2022/04/27 18:19:05;;;;;;;8.75;3.90;;;;;;;13.01;100.00;94718.38;5056380;28;20031;-94
2022/04/27 18:21:30;;;;;;;13.18;4.00;;;;;;;12.57;100.00;94723.38;5057518;28;20456;-93
2022/04/27 18:23:59;;;;;;;5.18;3.35;;;;;;;12.45;100.00;94725.50;5056572;28;20426;-93
2022/04/27 18:26:25;;;;;;;7.22;3.00;;;;;;;12.70;100.00;94729.09;5056482;28;20017;-93
2022/04/27 18:28:51;;;;;;;6.45;3.17;;;;;;;12.52;100.00;94736.53;5056356;28;20031;-93
2022/04/27 18:31:19;;;;;;;7.07;3.13;;;;;;;12.51;100.00;94737.59;5056208;28;20021;-94
2022/04/27 18:33:45;;;;;;;9.27;2.97;;;;;;;12.68;100.00;94736.47;5040240;28;20025;-93
2022/04/27 18:36:11;;;;;;;8.85;3.55;;;;;;;12.27;100.00;94734.81;5040013;28;20319;-94
2022/04/27 18:38:41;;;;;;;8.73;2.65;;;;;;;12.48;100.00;94740.78;5056390;28;20027;-94
2022/04/27 18:41:07;;;;;;;7.07;2.63;;;;;;;12.56;100.00;94748.06;5056185;28;20055;-94
2022/04/27 18:51:56;;;;;;;6.80;3.25;;;;;;;11.98;100.00;94759.03;5057798;28;20063;-95
2022/04/27 18:54:21;;;;;;;9.05;3.15;;;;;;;12.12;100.00;94764.53;5041106;28;20021;-94
2022/04/27 18:56:57;;;;;;;;;;;;;;;;;;;;;
2022/04/27 18:59:23;;;;;;;5.38;2.80;;;;;;;12.06;100.00;94768.22;5056456;28;20033;-94
2022/04/27 19:01:49;;;;;;;7.50;2.95;;;;;;;11.99;100.00;94773.72;5057374;28;20128;-94
2022/04/27 19:04:26;;;;;;;;;;;;;;;;;;;;;
2022/04/27 19:06:54;;;;;;;7.55;2.90;;;;;;;11.82;100.00;94774.00;5056310;28;20023;-94
2022/04/27 19:09:20;;;;;;;6.80;2.95;;;;;;;11.53;100.00;94787.66;5039781;28;20123;-93
2022/04/27 19:11:45;;;;;;;3.80;2.80;;;;;;;11.39;100.00;94788.19;5039473;28;20088;-94
2022/04/27 19:14:21;;;;;;;;;;;;;;;;;;;;;
2022/04/27 19:16:47;;;;;;;5.93;2.85;;;;;;;11.66;100.00;94789.75;5056124;28;20031;-91
2022/04/27 19:19:15;;;;;;;5.05;3.08;;;;;;;11.59;100.00;94797.09;5039590;28;20123;-92
2022/04/27 19:21:44;;;;;;;8.77;3.08;;;;;;;11.55;100.00;94798.69;5057130;28;20028;-91